Hauptseite
METAR-TAF:

METAR-TAF

Flughäfen :

Flughafen Weeze

Weeze, Deutschland

Breite: 51-36-09N, Länge: 006-08-32E, Höhe: 32 m

METAR: fehlend

Zeit: 01:23 (23:23 UTC)

Prognose

Neuester Wetterbericht von vor 36 Stunden und 23 Minuten, um 11:00 UTC
Gültige Prognose vom 29 um 12 UTC bis 30 um 12 UTC
Wind 7 kt aus Nordost
Sichtweite 10 km oder mehr
keine Wolken unter 1500 m und keine Kumulonimbus oder Gewitterwolken
Zeitweise
vom 29 um 12 UTC bis 29 um 18 UTC
Wind 3 kt aus unterschiedlichen Richtungen
Übergehend zu
vom 29 um 18 UTC bis 29 um 21 UTC
Wind 3 kt aus unterschiedlichen Richtungen
Übergehend zu
vom 30 um 07 UTC bis 30 um 10 UTC
Wind 7 kt aus Ost/Nordost

TAF: EDLV 291100Z 2912/3012 04007KT CAVOK TEMPO 2912/2918 VRB03KT BECMG 2918/2921 VRB03KT BECMG 3007/3010 06007KT

Wetterbeobachtungen und Prognosen von mehr als 4000 Flughäfen (METAR und TAF Bericht).

Die verfügbaren Stationen werden durch gelbe und rote Markierungen auf der Karte dargestellt.

Führen Sie die Maus auf sie, um den Namen der Station zu sehen.

Darauf klicken, um die Beobachtung von Wetterbeobachtungen und Prognosen zu sehen.

Um die Karte zu ändern : klicken Sie auf den grünen Tasten mit einem schwarzen Kreuz Zum Vergrößern, auf den grünen Button mit einem Gedankenstrich zu verkleinern, oder auf die grünen Pfeile für benachbarte Karten.


METAR-TAF: